sensor_id;sensor_type;location;lat;lon;timestamp;P1;durP1;ratioP1;P2;durP2;ratioP2
21168;SDS011;10742;51.816;8.662;2023-09-12T00:02:56;18.50;;;8.77;;
21168;SDS011;10742;51.816;8.662;2023-09-12T00:05:59;18.95;;;8.18;;
21168;SDS011;10742;51.816;8.662;2023-09-12T00:09:02;19.70;;;8.65;;
21168;SDS011;10742;51.816;8.662;2023-09-12T00:12:07;16.50;;;8.40;;
21168;SDS011;10742;51.816;8.662;2023-09-12T00:15:09;18.65;;;7.78;;
21168;SDS011;10742;51.816;8.662;2023-09-12T00:18:12;23.08;;;8.77;;
21168;SDS011;10742;51.816;8.662;2023-09-12T00:21:14;23.52;;;8.73;;
21168;SDS011;10742;51.816;8.662;2023-09-12T00:24:16;16.50;;;8.35;;
21168;SDS011;10742;51.816;8.662;2023-09-12T00:27:19;18.38;;;8.35;;
21168;SDS011;10742;51.816;8.662;2023-09-12T00:30:21;22.05;;;8.60;;
21168;SDS011;10742;51.816;8.662;2023-09-12T00:33:23;21.70;;;8.77;;
21168;SDS011;10742;51.816;8.662;2023-09-12T00:36:26;23.20;;;9.02;;
21168;SDS011;10742;51.816;8.662;2023-09-12T00:39:29;18.52;;;8.68;;
21168;SDS011;10742;51.816;8.662;2023-09-12T00:42:32;17.52;;;8.07;;
21168;SDS011;10742;51.816;8.662;2023-09-12T00:45:34;19.23;;;9.15;;
21168;SDS011;10742;51.816;8.662;2023-09-12T00:48:36;18.02;;;8.55;;
21168;SDS011;10742;51.816;8.662;2023-09-12T00:51:40;20.25;;;8.90;;
21168;SDS011;10742;51.816;8.662;2023-09-12T00:54:43;18.27;;;8.73;;
21168;SDS011;10742;51.816;8.662;2023-09-12T00:57:45;18.63;;;8.52;;
21168;SDS011;10742;51.816;8.662;2023-09-12T01:00:49;20.88;;;8.82;;
21168;SDS011;10742;51.816;8.662;2023-09-12T01:03:52;20.48;;;9.15;;
21168;SDS011;10742;51.816;8.662;2023-09-12T01:06:56;20.02;;;9.43;;
21168;SDS011;10742;51.816;8.662;2023-09-12T01:09:58;21.63;;;9.23;;
21168;SDS011;10742;51.816;8.662;2023-09-12T01:13:01;20.25;;;8.98;;
21168;SDS011;10742;51.816;8.662;2023-09-12T01:16:03;21.10;;;9.10;;
21168;SDS011;10742;51.816;8.662;2023-09-12T01:19:06;16.70;;;9.07;;
21168;SDS011;10742;51.816;8.662;2023-09-12T01:29:00;20.95;;;9.35;;
21168;SDS011;10742;51.816;8.662;2023-09-12T01:32:05;21.60;;;10.55;;
21168;SDS011;10742;51.816;8.662;2023-09-12T01:35:08;22.38;;;10.85;;
21168;SDS011;10742;51.816;8.662;2023-09-12T01:38:10;20.83;;;10.07;;
21168;SDS011;10742;51.816;8.662;2023-09-12T01:41:13;20.23;;;10.63;;
21168;SDS011;10742;51.816;8.662;2023-09-12T01:44:15;22.92;;;9.82;;
21168;SDS011;10742;51.816;8.662;2023-09-12T01:47:19;21.85;;;9.00;;
21168;SDS011;10742;51.816;8.662;2023-09-12T01:50:23;16.35;;;7.00;;
21168;SDS011;10742;51.816;8.662;2023-09-12T01:53:28;18.42;;;6.97;;
21168;SDS011;10742;51.816;8.662;2023-09-12T01:56:33;13.07;;;6.50;;
21168;SDS011;10742;51.816;8.662;2023-09-12T01:59:35;14.95;;;6.78;;
21168;SDS011;10742;51.816;8.662;2023-09-12T02:02:38;10.52;;;5.18;;
21168;SDS011;10742;51.816;8.662;2023-09-12T02:05:40;7.80;;;4.90;;
21168;SDS011;10742;51.816;8.662;2023-09-12T02:08:43;10.93;;;5.38;;
21168;SDS011;10742;51.816;8.662;2023-09-12T02:11:46;9.82;;;5.38;;
21168;SDS011;10742;51.816;8.662;2023-09-12T02:14:50;8.45;;;4.63;;
21168;SDS011;10742;51.816;8.662;2023-09-12T02:17:52;9.68;;;4.88;;
21168;SDS011;10742;51.816;8.662;2023-09-12T02:20:55;8.85;;;4.47;;
21168;SDS011;10742;51.816;8.662;2023-09-12T02:23:57;13.13;;;4.80;;
21168;SDS011;10742;51.816;8.662;2023-09-12T02:27:00;9.30;;;4.70;;
21168;SDS011;10742;51.816;8.662;2023-09-12T02:30:02;11.02;;;4.60;;
21168;SDS011;10742;51.816;8.662;2023-09-12T02:33:06;9.75;;;5.18;;
21168;SDS011;10742;51.816;8.662;2023-09-12T02:36:08;9.55;;;5.13;;
21168;SDS011;10742;51.816;8.662;2023-09-12T02:39:10;13.70;;;6.00;;
21168;SDS011;10742;51.816;8.662;2023-09-12T02:42:13;9.57;;;4.90;;
21168;SDS011;10742;51.816;8.662;2023-09-12T02:45:15;14.77;;;6.25;;
21168;SDS011;10742;51.816;8.662;2023-09-12T02:48:17;14.23;;;6.35;;
21168;SDS011;10742;51.816;8.662;2023-09-12T02:51:21;15.48;;;6.78;;
21168;SDS011;10742;51.816;8.662;2023-09-12T02:54:24;11.77;;;6.47;;
21168;SDS011;10742;51.816;8.662;2023-09-12T02:57:26;18.48;;;7.38;;
21168;SDS011;10742;51.816;8.662;2023-09-12T03:00:29;15.68;;;7.43;;
21168;SDS011;10742;51.816;8.662;2023-09-12T03:03:31;17.08;;;7.47;;
21168;SDS011;10742;51.816;8.662;2023-09-12T03:06:34;16.52;;;7.25;;
21168;SDS011;10742;51.816;8.662;2023-09-12T03:09:37;16.33;;;7.25;;
21168;SDS011;10742;51.816;8.662;2023-09-12T03:12:40;16.05;;;6.82;;
21168;SDS011;10742;51.816;8.662;2023-09-12T03:15:43;16.42;;;7.35;;
21168;SDS011;10742;51.816;8.662;2023-09-12T03:18:45;12.45;;;6.70;;
21168;SDS011;10742;51.816;8.662;2023-09-12T03:21:48;17.67;;;7.13;;
21168;SDS011;10742;51.816;8.662;2023-09-12T03:24:50;15.13;;;7.20;;
21168;SDS011;10742;51.816;8.662;2023-09-12T03:27:53;20.77;;;7.53;;
21168;SDS011;10742;51.816;8.662;2023-09-12T03:31:08;15.07;;;7.07;;
21168;SDS011;10742;51.816;8.662;2023-09-12T03:34:16;19.40;;;7.70;;
21168;SDS011;10742;51.816;8.662;2023-09-12T03:37:18;21.15;;;8.00;;
21168;SDS011;10742;51.816;8.662;2023-09-12T03:40:24;24.30;;;8.40;;
21168;SDS011;10742;51.816;8.662;2023-09-12T03:43:26;20.15;;;7.75;;
21168;SDS011;10742;51.816;8.662;2023-09-12T03:46:30;27.35;;;8.63;;
21168;SDS011;10742;51.816;8.662;2023-09-12T03:49:32;18.15;;;7.72;;
21168;SDS011;10742;51.816;8.662;2023-09-12T03:52:34;20.42;;;8.07;;
21168;SDS011;10742;51.816;8.662;2023-09-12T03:55:37;20.38;;;8.63;;
21168;SDS011;10742;51.816;8.662;2023-09-12T03:58:39;17.85;;;7.65;;
21168;SDS011;10742;51.816;8.662;2023-09-12T04:01:42;17.23;;;7.03;;
21168;SDS011;10742;51.816;8.662;2023-09-12T04:04:44;18.77;;;7.45;;
21168;SDS011;10742;51.816;8.662;2023-09-12T04:07:46;15.68;;;6.88;;
21168;SDS011;10742;51.816;8.662;2023-09-12T04:10:49;18.23;;;6.95;;
21168;SDS011;10742;51.816;8.662;2023-09-12T04:13:52;17.17;;;7.45;;
21168;SDS011;10742;51.816;8.662;2023-09-12T04:16:54;13.15;;;7.13;;
21168;SDS011;10742;51.816;8.662;2023-09-12T04:19:56;14.40;;;7.60;;
21168;SDS011;10742;51.816;8.662;2023-09-12T04:23:02;15.52;;;6.72;;
21168;SDS011;10742;51.816;8.662;2023-09-12T04:26:05;14.38;;;7.20;;
21168;SDS011;10742;51.816;8.662;2023-09-12T04:29:08;15.05;;;7.35;;
21168;SDS011;10742;51.816;8.662;2023-09-12T04:32:10;17.25;;;7.45;;
21168;SDS011;10742;51.816;8.662;2023-09-12T04:35:13;11.60;;;6.63;;
21168;SDS011;10742;51.816;8.662;2023-09-12T04:38:15;14.77;;;7.03;;
21168;SDS011;10742;51.816;8.662;2023-09-12T04:41:18;15.20;;;7.15;;
21168;SDS011;10742;51.816;8.662;2023-09-12T04:44:21;17.50;;;7.57;;
21168;SDS011;10742;51.816;8.662;2023-09-12T04:47:23;13.98;;;7.38;;
21168;SDS011;10742;51.816;8.662;2023-09-12T04:50:26;15.77;;;7.82;;
21168;SDS011;10742;51.816;8.662;2023-09-12T04:53:28;15.05;;;7.18;;
21168;SDS011;10742;51.816;8.662;2023-09-12T04:56:37;15.10;;;7.10;;
21168;SDS011;10742;51.816;8.662;2023-09-12T04:59:39;13.85;;;7.28;;
21168;SDS011;10742;51.816;8.662;2023-09-12T05:02:42;15.93;;;7.50;;
21168;SDS011;10742;51.816;8.662;2023-09-12T05:05:48;17.40;;;7.20;;
21168;SDS011;10742;51.816;8.662;2023-09-12T05:08:51;17.33;;;7.30;;
21168;SDS011;10742;51.816;8.662;2023-09-12T05:11:54;15.70;;;6.97;;
21168;SDS011;10742;51.816;8.662;2023-09-12T05:14:56;16.55;;;7.97;;
21168;SDS011;10742;51.816;8.662;2023-09-12T05:17:59;16.60;;;7.30;;
21168;SDS011;10742;51.816;8.662;2023-09-12T05:21:01;20.42;;;8.52;;
21168;SDS011;10742;51.816;8.662;2023-09-12T05:24:05;18.88;;;8.00;;
21168;SDS011;10742;51.816;8.662;2023-09-12T05:27:07;16.55;;;7.85;;
21168;SDS011;10742;51.816;8.662;2023-09-12T05:30:10;15.95;;;7.88;;
21168;SDS011;10742;51.816;8.662;2023-09-12T05:33:12;13.05;;;7.18;;
21168;SDS011;10742;51.816;8.662;2023-09-12T05:36:15;18.10;;;7.57;;
21168;SDS011;10742;51.816;8.662;2023-09-12T05:39:20;15.23;;;7.25;;
21168;SDS011;10742;51.816;8.662;2023-09-12T05:42:23;18.05;;;7.00;;
21168;SDS011;10742;51.816;8.662;2023-09-12T05:45:25;12.25;;;6.13;;
21168;SDS011;10742;51.816;8.662;2023-09-12T05:48:29;15.60;;;6.85;;
21168;SDS011;10742;51.816;8.662;2023-09-12T05:51:31;12.90;;;5.95;;
21168;SDS011;10742;51.816;8.662;2023-09-12T05:54:34;15.50;;;6.53;;
21168;SDS011;10742;51.816;8.662;2023-09-12T05:57:38;13.00;;;5.60;;
21168;SDS011;10742;51.816;8.662;2023-09-12T06:00:40;11.80;;;5.60;;
21168;SDS011;10742;51.816;8.662;2023-09-12T06:03:43;8.82;;;4.72;;
21168;SDS011;10742;51.816;8.662;2023-09-12T06:06:46;12.98;;;5.30;;
21168;SDS011;10742;51.816;8.662;2023-09-12T06:09:49;8.10;;;5.20;;
21168;SDS011;10742;51.816;8.662;2023-09-12T06:12:51;10.82;;;5.15;;
21168;SDS011;10742;51.816;8.662;2023-09-12T06:15:53;9.15;;;4.68;;
21168;SDS011;10742;51.816;8.662;2023-09-12T06:18:56;11.77;;;4.72;;
21168;SDS011;10742;51.816;8.662;2023-09-12T06:21:58;7.10;;;3.83;;
21168;SDS011;10742;51.816;8.662;2023-09-12T06:25:00;9.77;;;4.20;;
21168;SDS011;10742;51.816;8.662;2023-09-12T06:28:03;5.80;;;3.70;;
21168;SDS011;10742;51.816;8.662;2023-09-12T06:31:10;8.23;;;3.70;;
21168;SDS011;10742;51.816;8.662;2023-09-12T06:34:12;6.75;;;4.38;;
21168;SDS011;10742;51.816;8.662;2023-09-12T06:37:14;6.32;;;4.00;;
21168;SDS011;10742;51.816;8.662;2023-09-12T06:40:17;8.25;;;4.15;;
21168;SDS011;10742;51.816;8.662;2023-09-12T06:43:22;5.93;;;3.60;;
21168;SDS011;10742;51.816;8.662;2023-09-12T06:46:24;6.47;;;3.40;;
21168;SDS011;10742;51.816;8.662;2023-09-12T06:49:28;6.25;;;3.55;;
21168;SDS011;10742;51.816;8.662;2023-09-12T06:52:32;5.00;;;3.08;;
21168;SDS011;10742;51.816;8.662;2023-09-12T06:55:34;5.05;;;3.10;;
21168;SDS011;10742;51.816;8.662;2023-09-12T06:58:36;7.00;;;3.05;;
21168;SDS011;10742;51.816;8.662;2023-09-12T07:01:39;5.97;;;3.55;;
21168;SDS011;10742;51.816;8.662;2023-09-12T07:04:41;5.03;;;2.90;;
21168;SDS011;10742;51.816;8.662;2023-09-12T07:07:43;2.88;;;2.55;;
21168;SDS011;10742;51.816;8.662;2023-09-12T07:10:46;4.75;;;3.00;;
21168;SDS011;10742;51.816;8.662;2023-09-12T07:13:48;5.38;;;2.90;;
21168;SDS011;10742;51.816;8.662;2023-09-12T07:16:51;4.07;;;2.50;;
21168;SDS011;10742;51.816;8.662;2023-09-12T07:19:54;4.72;;;2.85;;
21168;SDS011;10742;51.816;8.662;2023-09-12T07:22:56;5.05;;;2.85;;
21168;SDS011;10742;51.816;8.662;2023-09-12T07:25:58;3.60;;;2.63;;
21168;SDS011;10742;51.816;8.662;2023-09-12T07:29:01;6.03;;;2.72;;
21168;SDS011;10742;51.816;8.662;2023-09-12T07:32:06;4.70;;;2.75;;
21168;SDS011;10742;51.816;8.662;2023-09-12T07:35:08;5.15;;;3.00;;
21168;SDS011;10742;51.816;8.662;2023-09-12T07:38:10;3.97;;;2.95;;
21168;SDS011;10742;51.816;8.662;2023-09-12T07:41:13;4.80;;;2.85;;
21168;SDS011;10742;51.816;8.662;2023-09-12T07:44:15;6.57;;;3.22;;
21168;SDS011;10742;51.816;8.662;2023-09-12T07:47:18;8.73;;;3.40;;
21168;SDS011;10742;51.816;8.662;2023-09-12T07:50:21;4.97;;;3.00;;
21168;SDS011;10742;51.816;8.662;2023-09-12T07:53:23;7.10;;;2.97;;
21168;SDS011;10742;51.816;8.662;2023-09-12T07:56:26;5.43;;;3.28;;
21168;SDS011;10742;51.816;8.662;2023-09-12T07:59:28;7.70;;;3.17;;
21168;SDS011;10742;51.816;8.662;2023-09-12T08:02:30;6.55;;;2.90;;
21168;SDS011;10742;51.816;8.662;2023-09-12T08:05:33;4.50;;;3.10;;
21168;SDS011;10742;51.816;8.662;2023-09-12T08:08:35;6.18;;;3.03;;
21168;SDS011;10742;51.816;8.662;2023-09-12T08:11:37;8.90;;;3.47;;
21168;SDS011;10742;51.816;8.662;2023-09-12T08:14:40;7.93;;;3.55;;
21168;SDS011;10742;51.816;8.662;2023-09-12T08:17:42;7.78;;;3.58;;
21168;SDS011;10742;51.816;8.662;2023-09-12T08:20:45;10.20;;;3.60;;
21168;SDS011;10742;51.816;8.662;2023-09-12T08:23:47;9.30;;;4.40;;
21168;SDS011;10742;51.816;8.662;2023-09-12T08:26:50;7.70;;;4.18;;
21168;SDS011;10742;51.816;8.662;2023-09-12T08:29:52;9.30;;;4.28;;
21168;SDS011;10742;51.816;8.662;2023-09-12T08:32:55;6.82;;;3.80;;
21168;SDS011;10742;51.816;8.662;2023-09-12T08:35:57;6.00;;;3.85;;
21168;SDS011;10742;51.816;8.662;2023-09-12T08:39:00;6.55;;;4.07;;
21168;SDS011;10742;51.816;8.662;2023-09-12T08:42:02;7.57;;;3.63;;
21168;SDS011;10742;51.816;8.662;2023-09-12T08:45:05;8.05;;;4.25;;
21168;SDS011;10742;51.816;8.662;2023-09-12T08:48:19;6.63;;;3.90;;
21168;SDS011;10742;51.816;8.662;2023-09-12T08:51:25;7.20;;;4.10;;
21168;SDS011;10742;51.816;8.662;2023-09-12T08:54:28;7.45;;;3.75;;
21168;SDS011;10742;51.816;8.662;2023-09-12T08:57:31;6.22;;;3.80;;
21168;SDS011;10742;51.816;8.662;2023-09-12T09:00:36;9.70;;;3.85;;
21168;SDS011;10742;51.816;8.662;2023-09-12T09:03:39;8.88;;;4.20;;
21168;SDS011;10742;51.816;8.662;2023-09-12T09:06:43;10.52;;;4.82;;
21168;SDS011;10742;51.816;8.662;2023-09-12T09:09:47;6.82;;;3.58;;
21168;SDS011;10742;51.816;8.662;2023-09-12T09:12:50;8.93;;;4.30;;
21168;SDS011;10742;51.816;8.662;2023-09-12T09:19:18;8.20;;;4.38;;
21168;SDS011;10742;51.816;8.662;2023-09-12T09:22:23;7.80;;;4.22;;
21168;SDS011;10742;51.816;8.662;2023-09-12T09:25:25;11.35;;;4.22;;
21168;SDS011;10742;51.816;8.662;2023-09-12T09:28:28;10.85;;;4.03;;
21168;SDS011;10742;51.816;8.662;2023-09-12T09:31:30;7.90;;;3.70;;
21168;SDS011;10742;51.816;8.662;2023-09-12T09:34:33;7.65;;;4.03;;
21168;SDS011;10742;51.816;8.662;2023-09-12T09:37:41;6.43;;;3.42;;
21168;SDS011;10742;51.816;8.662;2023-09-12T09:40:44;7.93;;;3.33;;
21168;SDS011;10742;51.816;8.662;2023-09-12T09:43:49;5.03;;;2.90;;
21168;SDS011;10742;51.816;8.662;2023-09-12T09:46:55;10.27;;;3.63;;
21168;SDS011;10742;51.816;8.662;2023-09-12T09:50:04;9.23;;;3.22;;
21168;SDS011;10742;51.816;8.662;2023-09-12T09:53:07;7.55;;;3.05;;
21168;SDS011;10742;51.816;8.662;2023-09-12T09:56:10;6.20;;;3.40;;
21168;SDS011;10742;51.816;8.662;2023-09-12T09:59:14;5.30;;;2.95;;
21168;SDS011;10742;51.816;8.662;2023-09-12T10:02:22;6.43;;;3.00;;
21168;SDS011;10742;51.816;8.662;2023-09-12T10:05:28;5.10;;;2.83;;
21168;SDS011;10742;51.816;8.662;2023-09-12T10:08:34;5.95;;;2.90;;
21168;SDS011;10742;51.816;8.662;2023-09-12T10:11:39;4.63;;;2.70;;
21168;SDS011;10742;51.816;8.662;2023-09-12T10:14:42;5.03;;;2.92;;
21168;SDS011;10742;51.816;8.662;2023-09-12T10:17:46;4.15;;;2.83;;
21168;SDS011;10742;51.816;8.662;2023-09-12T10:20:54;4.13;;;2.70;;
21168;SDS011;10742;51.816;8.662;2023-09-12T10:24:00;6.65;;;3.20;;
21168;SDS011;10742;51.816;8.662;2023-09-12T10:27:05;7.85;;;3.10;;
21168;SDS011;10742;51.816;8.662;2023-09-12T10:30:08;8.98;;;3.13;;
21168;SDS011;10742;51.816;8.662;2023-09-12T10:33:11;8.45;;;3.20;;
21168;SDS011;10742;51.816;8.662;2023-09-12T10:36:15;5.90;;;3.45;;
21168;SDS011;10742;51.816;8.662;2023-09-12T10:39:20;7.78;;;3.58;;
21168;SDS011;10742;51.816;8.662;2023-09-12T10:42:25;5.18;;;3.10;;
21168;SDS011;10742;51.816;8.662;2023-09-12T10:45:31;10.80;;;3.35;;
21168;SDS011;10742;51.816;8.662;2023-09-12T10:48:36;7.63;;;3.22;;
21168;SDS011;10742;51.816;8.662;2023-09-12T10:51:42;8.82;;;3.28;;
21168;SDS011;10742;51.816;8.662;2023-09-12T10:54:45;6.68;;;3.10;;
21168;SDS011;10742;51.816;8.662;2023-09-12T10:58:04;6.35;;;3.35;;
21168;SDS011;10742;51.816;8.662;2023-09-12T11:01:25;9.25;;;3.40;;
21168;SDS011;10742;51.816;8.662;2023-09-12T11:10:38;7.70;;;3.17;;
21168;SDS011;10742;51.816;8.662;2023-09-12T11:13:40;8.57;;;3.08;;
21168;SDS011;10742;51.816;8.662;2023-09-12T11:16:43;9.82;;;3.75;;
21168;SDS011;10742;51.816;8.662;2023-09-12T11:20:05;4.72;;;2.65;;
21168;SDS011;10742;51.816;8.662;2023-09-12T11:23:15;7.60;;;3.30;;
21168;SDS011;10742;51.816;8.662;2023-09-12T11:26:17;7.35;;;3.25;;
21168;SDS011;10742;51.816;8.662;2023-09-12T11:29:21;7.32;;;2.80;;
21168;SDS011;10742;51.816;8.662;2023-09-12T11:32:26;5.70;;;2.92;;
21168;SDS011;10742;51.816;8.662;2023-09-12T11:35:38;5.25;;;2.42;;
21168;SDS011;10742;51.816;8.662;2023-09-12T11:38:42;4.15;;;2.40;;
21168;SDS011;10742;51.816;8.662;2023-09-12T11:41:44;3.50;;;2.30;;
21168;SDS011;10742;51.816;8.662;2023-09-12T11:44:48;5.32;;;2.92;;
21168;SDS011;10742;51.816;8.662;2023-09-12T11:47:52;6.00;;;2.58;;
21168;SDS011;10742;51.816;8.662;2023-09-12T11:50:56;8.02;;;3.00;;
21168;SDS011;10742;51.816;8.662;2023-09-12T11:53:58;6.50;;;2.47;;
21168;SDS011;10742;51.816;8.662;2023-09-12T11:57:03;3.83;;;2.47;;
21168;SDS011;10742;51.816;8.662;2023-09-12T12:00:05;5.30;;;2.60;;
21168;SDS011;10742;51.816;8.662;2023-09-12T12:03:13;2.95;;;2.20;;
21168;SDS011;10742;51.816;8.662;2023-09-12T12:06:16;4.13;;;2.20;;
21168;SDS011;10742;51.816;8.662;2023-09-12T12:09:22;3.95;;;2.22;;
21168;SDS011;10742;51.816;8.662;2023-09-12T12:12:24;2.42;;;2.03;;
21168;SDS011;10742;51.816;8.662;2023-09-12T12:15:27;5.15;;;2.00;;
21168;SDS011;10742;51.816;8.662;2023-09-12T12:18:29;3.38;;;1.90;;
21168;SDS011;10742;51.816;8.662;2023-09-12T12:21:32;2.78;;;2.10;;
21168;SDS011;10742;51.816;8.662;2023-09-12T12:24:39;4.57;;;1.90;;
21168;SDS011;10742;51.816;8.662;2023-09-12T12:27:43;2.22;;;1.90;;
21168;SDS011;10742;51.816;8.662;2023-09-12T12:30:46;2.53;;;1.90;;
21168;SDS011;10742;51.816;8.662;2023-09-12T12:33:55;4.55;;;1.65;;
21168;SDS011;10742;51.816;8.662;2023-09-12T12:36:58;1.83;;;1.73;;
21168;SDS011;10742;51.816;8.662;2023-09-12T12:40:01;2.00;;;1.70;;
21168;SDS011;10742;51.816;8.662;2023-09-12T12:43:05;3.65;;;1.90;;
21168;SDS011;10742;51.816;8.662;2023-09-12T12:46:17;2.33;;;1.95;;
21168;SDS011;10742;51.816;8.662;2023-09-12T12:49:21;2.42;;;1.80;;
21168;SDS011;10742;51.816;8.662;2023-09-12T12:52:24;2.03;;;1.77;;
21168;SDS011;10742;51.816;8.662;2023-09-12T12:55:27;3.80;;;1.92;;
21168;SDS011;10742;51.816;8.662;2023-09-12T12:58:29;2.83;;;2.00;;
21168;SDS011;10742;51.816;8.662;2023-09-12T13:01:34;2.63;;;2.03;;
21168;SDS011;10742;51.816;8.662;2023-09-12T13:04:38;4.20;;;2.22;;
21168;SDS011;10742;51.816;8.662;2023-09-12T13:07:40;3.38;;;2.28;;
21168;SDS011;10742;51.816;8.662;2023-09-12T13:10:43;2.85;;;2.28;;
21168;SDS011;10742;51.816;8.662;2023-09-12T13:13:47;3.30;;;2.25;;
21168;SDS011;10742;51.816;8.662;2023-09-12T13:16:53;2.53;;;1.90;;
21168;SDS011;10742;51.816;8.662;2023-09-12T13:19:56;8.65;;;2.45;;
21168;SDS011;10742;51.816;8.662;2023-09-12T13:22:58;4.95;;;2.30;;
21168;SDS011;10742;51.816;8.662;2023-09-12T13:26:00;3.75;;;2.13;;
21168;SDS011;10742;51.816;8.662;2023-09-12T13:29:04;2.92;;;2.35;;
21168;SDS011;10742;51.816;8.662;2023-09-12T13:32:07;6.68;;;2.00;;
21168;SDS011;10742;51.816;8.662;2023-09-12T13:35:09;4.50;;;2.35;;
21168;SDS011;10742;51.816;8.662;2023-09-12T13:38:11;2.90;;;2.05;;
21168;SDS011;10742;51.816;8.662;2023-09-12T13:41:14;2.65;;;2.38;;
21168;SDS011;10742;51.816;8.662;2023-09-12T13:44:17;6.80;;;2.72;;
21168;SDS011;10742;51.816;8.662;2023-09-12T13:47:22;5.93;;;2.50;;
21168;SDS011;10742;51.816;8.662;2023-09-12T13:50:27;2.38;;;2.10;;
21168;SDS011;10742;51.816;8.662;2023-09-12T13:53:31;5.70;;;2.78;;
21168;SDS011;10742;51.816;8.662;2023-09-12T13:56:34;4.68;;;2.60;;
21168;SDS011;10742;51.816;8.662;2023-09-12T13:59:37;3.63;;;2.63;;
21168;SDS011;10742;51.816;8.662;2023-09-12T14:02:43;3.20;;;2.47;;
21168;SDS011;10742;51.816;8.662;2023-09-12T14:05:46;5.88;;;3.03;;
21168;SDS011;10742;51.816;8.662;2023-09-12T14:08:49;3.53;;;2.60;;
21168;SDS011;10742;51.816;8.662;2023-09-12T14:11:51;2.88;;;2.58;;
21168;SDS011;10742;51.816;8.662;2023-09-12T14:14:57;7.38;;;2.83;;
21168;SDS011;10742;51.816;8.662;2023-09-12T14:18:04;4.80;;;2.65;;
21168;SDS011;10742;51.816;8.662;2023-09-12T14:21:07;3.92;;;2.70;;
21168;SDS011;10742;51.816;8.662;2023-09-12T14:24:10;2.63;;;2.33;;
21168;SDS011;10742;51.816;8.662;2023-09-12T14:27:13;5.70;;;2.70;;
21168;SDS011;10742;51.816;8.662;2023-09-12T14:30:21;4.47;;;2.60;;
21168;SDS011;10742;51.816;8.662;2023-09-12T14:33:24;4.43;;;2.47;;
21168;SDS011;10742;51.816;8.662;2023-09-12T14:36:26;5.20;;;2.70;;
21168;SDS011;10742;51.816;8.662;2023-09-12T14:39:29;4.25;;;2.40;;
21168;SDS011;10742;51.816;8.662;2023-09-12T14:42:34;3.72;;;2.70;;
21168;SDS011;10742;51.816;8.662;2023-09-12T14:45:36;2.95;;;2.40;;
21168;SDS011;10742;51.816;8.662;2023-09-12T14:48:39;4.90;;;2.95;;
21168;SDS011;10742;51.816;8.662;2023-09-12T14:51:43;3.33;;;2.40;;
21168;SDS011;10742;51.816;8.662;2023-09-12T14:54:45;5.07;;;2.55;;
21168;SDS011;10742;51.816;8.662;2023-09-12T14:57:48;5.45;;;3.10;;
21168;SDS011;10742;51.816;8.662;2023-09-12T15:00:51;5.82;;;2.55;;
21168;SDS011;10742;51.816;8.662;2023-09-12T15:03:53;7.97;;;3.38;;
21168;SDS011;10742;51.816;8.662;2023-09-12T15:06:56;3.92;;;2.80;;
21168;SDS011;10742;51.816;8.662;2023-09-12T15:09:58;6.88;;;3.40;;
21168;SDS011;10742;51.816;8.662;2023-09-12T15:13:20;4.63;;;2.97;;
21168;SDS011;10742;51.816;8.662;2023-09-12T15:16:42;7.78;;;3.20;;
21168;SDS011;10742;51.816;8.662;2023-09-12T15:20:04;4.68;;;2.72;;
21168;SDS011;10742;51.816;8.662;2023-09-12T15:23:26;5.13;;;2.63;;
21168;SDS011;10742;51.816;8.662;2023-09-12T15:26:49;4.45;;;2.67;;
21168;SDS011;10742;51.816;8.662;2023-09-12T15:30:10;5.70;;;2.97;;
21168;SDS011;10742;51.816;8.662;2023-09-12T15:33:32;7.18;;;3.00;;
21168;SDS011;10742;51.816;8.662;2023-09-12T15:37:12;4.95;;;2.97;;
21168;SDS011;10742;51.816;8.662;2023-09-12T15:40:37;4.75;;;2.97;;
21168;SDS011;10742;51.816;8.662;2023-09-12T15:43:58;4.63;;;2.85;;
21168;SDS011;10742;51.816;8.662;2023-09-12T15:47:22;6.53;;;3.28;;
21168;SDS011;10742;51.816;8.662;2023-09-12T15:50:43;7.50;;;3.10;;
21168;SDS011;10742;51.816;8.662;2023-09-12T15:54:04;5.93;;;3.17;;
21168;SDS011;10742;51.816;8.662;2023-09-12T15:57:25;6.30;;;2.92;;
21168;SDS011;10742;51.816;8.662;2023-09-12T16:00:46;7.75;;;3.15;;
21168;SDS011;10742;51.816;8.662;2023-09-12T16:04:07;3.88;;;2.75;;
21168;SDS011;10742;51.816;8.662;2023-09-12T16:07:29;6.07;;;3.42;;
21168;SDS011;10742;51.816;8.662;2023-09-12T16:10:50;6.80;;;3.53;;
21168;SDS011;10742;51.816;8.662;2023-09-12T16:14:12;3.83;;;3.08;;
21168;SDS011;10742;51.816;8.662;2023-09-12T16:17:33;5.05;;;3.08;;
21168;SDS011;10742;51.816;8.662;2023-09-12T16:20:58;5.43;;;3.22;;
21168;SDS011;10742;51.816;8.662;2023-09-12T16:24:19;4.13;;;3.00;;
21168;SDS011;10742;51.816;8.662;2023-09-12T16:27:42;5.38;;;2.90;;
21168;SDS011;10742;51.816;8.662;2023-09-12T16:31:04;4.25;;;2.92;;
21168;SDS011;10742;51.816;8.662;2023-09-12T16:34:27;3.55;;;2.80;;
21168;SDS011;10742;51.816;8.662;2023-09-12T16:37:48;4.95;;;3.00;;
21168;SDS011;10742;51.816;8.662;2023-09-12T16:41:12;5.68;;;2.83;;
21168;SDS011;10742;51.816;8.662;2023-09-12T16:44:33;7.68;;;2.90;;
21168;SDS011;10742;51.816;8.662;2023-09-12T16:47:54;5.05;;;2.80;;
21168;SDS011;10742;51.816;8.662;2023-09-12T16:51:16;4.47;;;2.72;;
21168;SDS011;10742;51.816;8.662;2023-09-12T16:54:37;4.43;;;3.00;;
21168;SDS011;10742;51.816;8.662;2023-09-12T16:58:00;4.47;;;3.22;;
21168;SDS011;10742;51.816;8.662;2023-09-12T17:01:24;3.83;;;2.92;;
21168;SDS011;10742;51.816;8.662;2023-09-12T17:04:46;5.28;;;3.13;;
21168;SDS011;10742;51.816;8.662;2023-09-12T17:08:07;4.90;;;2.78;;
21168;SDS011;10742;51.816;8.662;2023-09-12T17:11:10;5.18;;;3.00;;
21168;SDS011;10742;51.816;8.662;2023-09-12T17:14:12;7.93;;;2.63;;
21168;SDS011;10742;51.816;8.662;2023-09-12T17:17:15;4.68;;;2.97;;
21168;SDS011;10742;51.816;8.662;2023-09-12T17:20:18;5.07;;;2.90;;
21168;SDS011;10742;51.816;8.662;2023-09-12T17:23:20;5.78;;;2.92;;
21168;SDS011;10742;51.816;8.662;2023-09-12T17:26:23;10.50;;;3.10;;
21168;SDS011;10742;51.816;8.662;2023-09-12T17:29:25;5.32;;;2.70;;
21168;SDS011;10742;51.816;8.662;2023-09-12T17:32:27;4.57;;;3.00;;
21168;SDS011;10742;51.816;8.662;2023-09-12T17:35:31;6.03;;;2.83;;
21168;SDS011;10742;51.816;8.662;2023-09-12T17:38:34;6.68;;;2.80;;
21168;SDS011;10742;51.816;8.662;2023-09-12T17:41:36;4.65;;;3.00;;
21168;SDS011;10742;51.816;8.662;2023-09-12T17:44:39;4.47;;;2.63;;
21168;SDS011;10742;51.816;8.662;2023-09-12T17:47:41;3.72;;;2.67;;
21168;SDS011;10742;51.816;8.662;2023-09-12T17:50:49;3.35;;;2.70;;
21168;SDS011;10742;51.816;8.662;2023-09-12T17:54:01;5.45;;;3.10;;
21168;SDS011;10742;51.816;8.662;2023-09-12T17:57:03;4.68;;;3.00;;
21168;SDS011;10742;51.816;8.662;2023-09-12T18:00:06;5.78;;;3.35;;
21168;SDS011;10742;51.816;8.662;2023-09-12T18:03:15;5.57;;;3.13;;
21168;SDS011;10742;51.816;8.662;2023-09-12T18:06:19;4.70;;;3.15;;
21168;SDS011;10742;51.816;8.662;2023-09-12T18:09:21;5.68;;;2.92;;
21168;SDS011;10742;51.816;8.662;2023-09-12T18:12:24;6.38;;;2.88;;
21168;SDS011;10742;51.816;8.662;2023-09-12T18:15:28;7.47;;;3.17;;
21168;SDS011;10742;51.816;8.662;2023-09-12T18:18:31;7.60;;;3.17;;
21168;SDS011;10742;51.816;8.662;2023-09-12T18:21:33;5.65;;;3.17;;
21168;SDS011;10742;51.816;8.662;2023-09-12T18:24:37;5.55;;;3.00;;
21168;SDS011;10742;51.816;8.662;2023-09-12T18:27:39;5.60;;;3.00;;
21168;SDS011;10742;51.816;8.662;2023-09-12T18:30:42;5.85;;;3.30;;
21168;SDS011;10742;51.816;8.662;2023-09-12T18:33:44;4.60;;;3.03;;
21168;SDS011;10742;51.816;8.662;2023-09-12T18:36:47;5.70;;;3.33;;
21168;SDS011;10742;51.816;8.662;2023-09-12T18:39:49;5.05;;;3.20;;
21168;SDS011;10742;51.816;8.662;2023-09-12T18:42:52;4.80;;;3.15;;
21168;SDS011;10742;51.816;8.662;2023-09-12T18:45:54;7.18;;;3.50;;
21168;SDS011;10742;51.816;8.662;2023-09-12T18:48:56;6.13;;;3.35;;